sensor_id;sensor_type;location;lat;lon;timestamp;temperature;humidity
29281;DHT22;25048;49.590;11.026;2023-08-20T00:01:57;22.10;99.90
29281;DHT22;25048;49.590;11.026;2023-08-20T00:04:26;22.10;99.90
29281;DHT22;25048;49.590;11.026;2023-08-20T00:06:55;22.10;99.90
29281;DHT22;25048;49.590;11.026;2023-08-20T00:09:22;22.10;99.90
29281;DHT22;25048;49.590;11.026;2023-08-20T00:11:52;22.10;99.90
29281;DHT22;25048;49.590;11.026;2023-08-20T00:14:19;22.10;99.90
29281;DHT22;25048;49.590;11.026;2023-08-20T00:16:47;22.10;99.90
29281;DHT22;25048;49.590;11.026;2023-08-20T00:19:14;22.10;99.90
29281;DHT22;25048;49.590;11.026;2023-08-20T00:21:42;22.10;99.90
29281;DHT22;25048;49.590;11.026;2023-08-20T00:24:12;22.10;99.90
29281;DHT22;25048;49.590;11.026;2023-08-20T00:26:40;22.00;99.90
29281;DHT22;25048;49.590;11.026;2023-08-20T00:29:07;22.00;99.90
29281;DHT22;25048;49.590;11.026;2023-08-20T00:31:35;22.00;99.90
29281;DHT22;25048;49.590;11.026;2023-08-20T00:34:02;22.00;99.90
29281;DHT22;25048;49.590;11.026;2023-08-20T00:36:30;22.00;99.90
29281;DHT22;25048;49.590;11.026;2023-08-20T00:38:57;22.00;99.90
29281;DHT22;25048;49.590;11.026;2023-08-20T00:41:25;22.00;99.90
29281;DHT22;25048;49.590;11.026;2023-08-20T00:43:52;22.00;99.90
29281;DHT22;25048;49.590;11.026;2023-08-20T00:46:20;22.00;99.90
29281;DHT22;25048;49.590;11.026;2023-08-20T00:48:47;22.00;99.90
29281;DHT22;25048;49.590;11.026;2023-08-20T00:51:15;22.00;99.90
29281;DHT22;25048;49.590;11.026;2023-08-20T00:53:43;22.00;99.90
29281;DHT22;25048;49.590;11.026;2023-08-20T00:56:11;22.00;99.90
29281;DHT22;25048;49.590;11.026;2023-08-20T00:58:38;22.00;99.90
29281;DHT22;25048;49.590;11.026;2023-08-20T01:01:06;22.00;99.90
29281;DHT22;25048;49.590;11.026;2023-08-20T01:03:33;21.90;99.90
29281;DHT22;25048;49.590;11.026;2023-08-20T01:08:41;21.90;99.90
29281;DHT22;25048;49.590;11.026;2023-08-20T01:11:12;21.80;99.90
29281;DHT22;25048;49.590;11.026;2023-08-20T01:13:39;21.80;99.90
29281;DHT22;25048;49.590;11.026;2023-08-20T01:16:07;21.80;99.90
29281;DHT22;25048;49.590;11.026;2023-08-20T01:18:34;21.70;99.90
29281;DHT22;25048;49.590;11.026;2023-08-20T01:21:13;21.70;99.90
29281;DHT22;25048;49.590;11.026;2023-08-20T01:29:09;21.60;99.90
29281;DHT22;25048;49.590;11.026;2023-08-20T01:31:38;21.50;99.90
29281;DHT22;25048;49.590;11.026;2023-08-20T01:34:06;21.50;99.90
29281;DHT22;25048;49.590;11.026;2023-08-20T01:36:34;21.50;99.90
29281;DHT22;25048;49.590;11.026;2023-08-20T01:39:01;21.40;99.90
29281;DHT22;25048;49.590;11.026;2023-08-20T01:41:30;21.40;99.90
29281;DHT22;25048;49.590;11.026;2023-08-20T01:43:58;21.30;99.90
29281;DHT22;25048;49.590;11.026;2023-08-20T01:46:25;21.30;99.90
29281;DHT22;25048;49.590;11.026;2023-08-20T01:48:53;21.20;99.90
29281;DHT22;25048;49.590;11.026;2023-08-20T01:51:20;21.20;99.90
29281;DHT22;25048;49.590;11.026;2023-08-20T01:53:48;21.10;99.90
29281;DHT22;25048;49.590;11.026;2023-08-20T01:56:16;21.10;99.90
29281;DHT22;25048;49.590;11.026;2023-08-20T01:58:43;21.00;99.90
29281;DHT22;25048;49.590;11.026;2023-08-20T02:01:11;21.00;99.90
29281;DHT22;25048;49.590;11.026;2023-08-20T02:03:38;21.00;99.90
29281;DHT22;25048;49.590;11.026;2023-08-20T02:06:06;21.00;99.90
29281;DHT22;25048;49.590;11.026;2023-08-20T02:08:33;20.90;99.90
29281;DHT22;25048;49.590;11.026;2023-08-20T02:11:02;20.90;99.90
29281;DHT22;25048;49.590;11.026;2023-08-20T02:13:31;20.90;99.90
29281;DHT22;25048;49.590;11.026;2023-08-20T02:16:02;20.90;99.90
29281;DHT22;25048;49.590;11.026;2023-08-20T02:18:31;20.90;99.90
29281;DHT22;25048;49.590;11.026;2023-08-20T02:20:58;20.90;99.90
29281;DHT22;25048;49.590;11.026;2023-08-20T02:23:26;20.90;99.90
29281;DHT22;25048;49.590;11.026;2023-08-20T02:25:53;20.90;99.90
29281;DHT22;25048;49.590;11.026;2023-08-20T02:28:21;20.90;99.90
29281;DHT22;25048;49.590;11.026;2023-08-20T02:30:48;20.90;99.90
29281;DHT22;25048;49.590;11.026;2023-08-20T02:33:16;20.90;99.90
29281;DHT22;25048;49.590;11.026;2023-08-20T02:35:43;20.90;99.90
29281;DHT22;25048;49.590;11.026;2023-08-20T02:38:11;20.90;99.90
29281;DHT22;25048;49.590;11.026;2023-08-20T02:40:42;20.80;99.90
29281;DHT22;25048;49.590;11.026;2023-08-20T02:43:09;20.80;99.90
29281;DHT22;25048;49.590;11.026;2023-08-20T02:45:41;20.80;99.90
29281;DHT22;25048;49.590;11.026;2023-08-20T02:48:09;20.80;99.90
29281;DHT22;25048;49.590;11.026;2023-08-20T02:50:37;20.80;99.90
29281;DHT22;25048;49.590;11.026;2023-08-20T02:53:05;20.80;99.90
29281;DHT22;25048;49.590;11.026;2023-08-20T02:55:33;20.70;99.90
29281;DHT22;25048;49.590;11.026;2023-08-20T02:58:02;20.70;99.90
29281;DHT22;25048;49.590;11.026;2023-08-20T03:00:35;20.60;99.90
29281;DHT22;25048;49.590;11.026;2023-08-20T03:03:03;20.60;99.90
29281;DHT22;25048;49.590;11.026;2023-08-20T03:05:32;20.50;99.90
29281;DHT22;25048;49.590;11.026;2023-08-20T03:08:01;20.50;99.90
29281;DHT22;25048;49.590;11.026;2023-08-20T03:10:31;20.40;99.90
29281;DHT22;25048;49.590;11.026;2023-08-20T03:13:02;20.40;99.90
29281;DHT22;25048;49.590;11.026;2023-08-20T03:15:30;20.40;99.90
29281;DHT22;25048;49.590;11.026;2023-08-20T03:17:57;20.30;99.90
29281;DHT22;25048;49.590;11.026;2023-08-20T03:20:25;20.30;99.90
29281;DHT22;25048;49.590;11.026;2023-08-20T03:22:54;20.20;99.90
29281;DHT22;25048;49.590;11.026;2023-08-20T03:25:21;20.20;99.90
29281;DHT22;25048;49.590;11.026;2023-08-20T03:27:51;20.20;99.90
29281;DHT22;25048;49.590;11.026;2023-08-20T03:30:19;20.20;99.90
29281;DHT22;25048;49.590;11.026;2023-08-20T03:32:46;20.20;99.90
29281;DHT22;25048;49.590;11.026;2023-08-20T03:35:14;20.10;99.90
29281;DHT22;25048;49.590;11.026;2023-08-20T03:37:42;20.10;99.90
29281;DHT22;25048;49.590;11.026;2023-08-20T03:40:11;20.10;99.90
29281;DHT22;25048;49.590;11.026;2023-08-20T03:42:39;20.00;99.90
29281;DHT22;25048;49.590;11.026;2023-08-20T03:45:06;20.00;99.90
29281;DHT22;25048;49.590;11.026;2023-08-20T03:47:34;19.90;99.90
29281;DHT22;25048;49.590;11.026;2023-08-20T03:50:04;19.90;99.90
29281;DHT22;25048;49.590;11.026;2023-08-20T03:52:32;19.90;99.90
29281;DHT22;25048;49.590;11.026;2023-08-20T03:54:59;19.80;99.90
29281;DHT22;25048;49.590;11.026;2023-08-20T03:57:27;19.80;99.90
29281;DHT22;25048;49.590;11.026;2023-08-20T03:59:54;19.70;99.90
29281;DHT22;25048;49.590;11.026;2023-08-20T04:02:23;19.70;99.90
29281;DHT22;25048;49.590;11.026;2023-08-20T04:04:50;19.70;99.90
29281;DHT22;25048;49.590;11.026;2023-08-20T04:07:18;19.70;99.90
29281;DHT22;25048;49.590;11.026;2023-08-20T04:09:46;19.60;99.90
29281;DHT22;25048;49.590;11.026;2023-08-20T04:12:13;19.60;99.90
29281;DHT22;25048;49.590;11.026;2023-08-20T04:14:41;19.60;99.90
29281;DHT22;25048;49.590;11.026;2023-08-20T04:17:08;19.60;99.90
29281;DHT22;25048;49.590;11.026;2023-08-20T04:19:36;19.50;99.90
29281;DHT22;25048;49.590;11.026;2023-08-20T04:22:03;19.50;99.90
29281;DHT22;25048;49.590;11.026;2023-08-20T04:24:31;19.50;99.90
29281;DHT22;25048;49.590;11.026;2023-08-20T04:26:58;19.50;99.90
29281;DHT22;25048;49.590;11.026;2023-08-20T04:29:26;19.50;99.90
29281;DHT22;25048;49.590;11.026;2023-08-20T04:31:54;19.50;99.90
29281;DHT22;25048;49.590;11.026;2023-08-20T04:34:21;19.50;99.90
29281;DHT22;25048;49.590;11.026;2023-08-20T04:36:49;19.50;99.90
29281;DHT22;25048;49.590;11.026;2023-08-20T04:39:17;19.50;99.90
29281;DHT22;25048;49.590;11.026;2023-08-20T04:41:44;19.50;99.90
29281;DHT22;25048;49.590;11.026;2023-08-20T04:44:12;19.50;99.90
29281;DHT22;25048;49.590;11.026;2023-08-20T04:46:40;19.50;99.90
29281;DHT22;25048;49.590;11.026;2023-08-20T04:49:07;19.50;99.90
29281;DHT22;25048;49.590;11.026;2023-08-20T04:51:35;19.50;99.90
29281;DHT22;25048;49.590;11.026;2023-08-20T04:54:02;19.50;99.90
29281;DHT22;25048;49.590;11.026;2023-08-20T04:56:30;19.60;99.90
29281;DHT22;25048;49.590;11.026;2023-08-20T04:58:57;19.60;99.90
29281;DHT22;25048;49.590;11.026;2023-08-20T05:01:25;19.70;99.90
29281;DHT22;25048;49.590;11.026;2023-08-20T05:03:52;19.70;99.90
29281;DHT22;25048;49.590;11.026;2023-08-20T05:06:20;19.80;99.90
29281;DHT22;25048;49.590;11.026;2023-08-20T05:08:47;19.80;99.90
29281;DHT22;25048;49.590;11.026;2023-08-20T05:11:15;19.90;99.90
29281;DHT22;25048;49.590;11.026;2023-08-20T05:13:44;20.00;99.90
29281;DHT22;25048;49.590;11.026;2023-08-20T05:16:12;20.10;99.90
29281;DHT22;25048;49.590;11.026;2023-08-20T05:18:40;20.10;99.90
29281;DHT22;25048;49.590;11.026;2023-08-20T05:21:07;20.20;99.90
29281;DHT22;25048;49.590;11.026;2023-08-20T05:23:34;20.30;99.90
29281;DHT22;25048;49.590;11.026;2023-08-20T05:26:02;20.40;99.90
29281;DHT22;25048;49.590;11.026;2023-08-20T05:28:29;20.50;99.90
29281;DHT22;25048;49.590;11.026;2023-08-20T05:30:57;20.60;99.90
29281;DHT22;25048;49.590;11.026;2023-08-20T05:33:25;20.70;99.90
29281;DHT22;25048;49.590;11.026;2023-08-20T05:35:53;20.80;99.90
29281;DHT22;25048;49.590;11.026;2023-08-20T05:38:20;20.80;99.90
29281;DHT22;25048;49.590;11.026;2023-08-20T05:40:48;20.90;99.90
29281;DHT22;25048;49.590;11.026;2023-08-20T05:43:15;20.90;99.90
29281;DHT22;25048;49.590;11.026;2023-08-20T05:45:43;21.00;99.90
29281;DHT22;25048;49.590;11.026;2023-08-20T05:48:10;21.00;99.90
29281;DHT22;25048;49.590;11.026;2023-08-20T05:50:38;21.00;99.90
29281;DHT22;25048;49.590;11.026;2023-08-20T05:53:05;21.10;99.90
29281;DHT22;25048;49.590;11.026;2023-08-20T05:55:33;21.20;99.90
29281;DHT22;25048;49.590;11.026;2023-08-20T05:58:00;21.30;99.90
29281;DHT22;25048;49.590;11.026;2023-08-20T06:00:28;21.40;99.90
29281;DHT22;25048;49.590;11.026;2023-08-20T06:02:56;21.50;99.90
29281;DHT22;25048;49.590;11.026;2023-08-20T06:05:23;21.60;99.90
29281;DHT22;25048;49.590;11.026;2023-08-20T06:07:51;21.70;99.90
29281;DHT22;25048;49.590;11.026;2023-08-20T06:10:18;21.90;99.90
29281;DHT22;25048;49.590;11.026;2023-08-20T06:12:46;22.00;99.90
29281;DHT22;25048;49.590;11.026;2023-08-20T06:15:14;22.10;99.90
29281;DHT22;25048;49.590;11.026;2023-08-20T06:17:41;22.20;99.90
29281;DHT22;25048;49.590;11.026;2023-08-20T06:20:09;22.40;99.90
29281;DHT22;25048;49.590;11.026;2023-08-20T06:22:38;22.60;99.90
29281;DHT22;25048;49.590;11.026;2023-08-20T06:25:06;22.70;99.90
29281;DHT22;25048;49.590;11.026;2023-08-20T06:27:34;22.90;99.90
29281;DHT22;25048;49.590;11.026;2023-08-20T06:30:01;23.00;99.90
29281;DHT22;25048;49.590;11.026;2023-08-20T06:32:29;23.20;99.90
29281;DHT22;25048;49.590;11.026;2023-08-20T06:34:56;23.30;99.90
29281;DHT22;25048;49.590;11.026;2023-08-20T06:37:24;23.50;99.90
29281;DHT22;25048;49.590;11.026;2023-08-20T06:39:51;23.50;99.90
29281;DHT22;25048;49.590;11.026;2023-08-20T06:42:19;23.70;99.90
29281;DHT22;25048;49.590;11.026;2023-08-20T06:44:46;23.80;99.90
29281;DHT22;25048;49.590;11.026;2023-08-20T06:47:14;23.80;99.90
29281;DHT22;25048;49.590;11.026;2023-08-20T06:49:41;23.90;99.90
29281;DHT22;25048;49.590;11.026;2023-08-20T06:52:09;24.00;99.90
29281;DHT22;25048;49.590;11.026;2023-08-20T06:54:36;24.00;99.90
29281;DHT22;25048;49.590;11.026;2023-08-20T06:57:04;24.10;99.90
29281;DHT22;25048;49.590;11.026;2023-08-20T06:59:32;24.30;99.90
29281;DHT22;25048;49.590;11.026;2023-08-20T07:01:59;24.40;99.90
29281;DHT22;25048;49.590;11.026;2023-08-20T07:04:26;24.50;99.90
29281;DHT22;25048;49.590;11.026;2023-08-20T07:06:54;24.60;99.90
29281;DHT22;25048;49.590;11.026;2023-08-20T07:09:21;24.70;99.90
29281;DHT22;25048;49.590;11.026;2023-08-20T07:11:49;24.80;99.90
29281;DHT22;25048;49.590;11.026;2023-08-20T07:14:16;24.90;99.90
29281;DHT22;25048;49.590;11.026;2023-08-20T07:16:44;25.00;99.90
29281;DHT22;25048;49.590;11.026;2023-08-20T07:19:11;25.10;99.90
29281;DHT22;25048;49.590;11.026;2023-08-20T07:21:39;25.20;99.90
29281;DHT22;25048;49.590;11.026;2023-08-20T07:24:07;25.30;99.90
29281;DHT22;25048;49.590;11.026;2023-08-20T07:26:34;25.40;99.90
29281;DHT22;25048;49.590;11.026;2023-08-20T07:29:02;25.50;99.90
29281;DHT22;25048;49.590;11.026;2023-08-20T07:31:32;25.60;99.90
29281;DHT22;25048;49.590;11.026;2023-08-20T07:34:01;25.70;99.90
29281;DHT22;25048;49.590;11.026;2023-08-20T07:36:29;25.80;99.90
29281;DHT22;25048;49.590;11.026;2023-08-20T07:38:57;25.90;99.90
29281;DHT22;25048;49.590;11.026;2023-08-20T07:41:24;26.00;99.90
29281;DHT22;25048;49.590;11.026;2023-08-20T07:43:52;26.00;99.90
29281;DHT22;25048;49.590;11.026;2023-08-20T07:46:19;26.10;99.90
29281;DHT22;25048;49.590;11.026;2023-08-20T07:48:47;26.20;99.90
29281;DHT22;25048;49.590;11.026;2023-08-20T07:51:14;26.30;99.90
29281;DHT22;25048;49.590;11.026;2023-08-20T07:53:42;26.40;99.90
29281;DHT22;25048;49.590;11.026;2023-08-20T07:56:09;26.50;99.90
29281;DHT22;25048;49.590;11.026;2023-08-20T07:58:37;26.70;99.90
29281;DHT22;25048;49.590;11.026;2023-08-20T08:01:04;26.80;99.90
29281;DHT22;25048;49.590;11.026;2023-08-20T08:03:32;26.90;99.90
29281;DHT22;25048;49.590;11.026;2023-08-20T08:05:59;27.00;99.90
29281;DHT22;25048;49.590;11.026;2023-08-20T08:08:27;27.10;99.90
29281;DHT22;25048;49.590;11.026;2023-08-20T08:10:54;27.30;99.90
29281;DHT22;25048;49.590;11.026;2023-08-20T08:13:22;27.40;99.90
29281;DHT22;25048;49.590;11.026;2023-08-20T08:15:51;27.50;99.90
29281;DHT22;25048;49.590;11.026;2023-08-20T08:18:21;27.60;99.90
29281;DHT22;25048;49.590;11.026;2023-08-20T08:20:49;27.60;99.90
29281;DHT22;25048;49.590;11.026;2023-08-20T08:23:17;27.80;99.90
29281;DHT22;25048;49.590;11.026;2023-08-20T08:25:44;27.90;99.90
29281;DHT22;25048;49.590;11.026;2023-08-20T08:28:12;28.00;99.90
29281;DHT22;25048;49.590;11.026;2023-08-20T08:30:39;28.10;99.90
29281;DHT22;25048;49.590;11.026;2023-08-20T08:33:07;28.20;99.90
29281;DHT22;25048;49.590;11.026;2023-08-20T08:35:35;28.30;99.90
29281;DHT22;25048;49.590;11.026;2023-08-20T08:38:02;28.40;99.90
29281;DHT22;25048;49.590;11.026;2023-08-20T08:40:31;28.50;99.90
29281;DHT22;25048;49.590;11.026;2023-08-20T08:43:01;28.60;99.90
29281;DHT22;25048;49.590;11.026;2023-08-20T08:45:30;28.80;99.90
29281;DHT22;25048;49.590;11.026;2023-08-20T08:47:57;28.90;99.90
29281;DHT22;25048;49.590;11.026;2023-08-20T08:50:25;29.00;99.90
29281;DHT22;25048;49.590;11.026;2023-08-20T08:52:54;29.00;99.90
29281;DHT22;25048;49.590;11.026;2023-08-20T08:55:22;29.10;99.90
29281;DHT22;25048;49.590;11.026;2023-08-20T08:57:49;29.20;99.90
29281;DHT22;25048;49.590;11.026;2023-08-20T09:00:17;29.40;99.90
29281;DHT22;25048;49.590;11.026;2023-08-20T09:02:44;29.40;99.90
29281;DHT22;25048;49.590;11.026;2023-08-20T09:05:13;29.60;99.90
29281;DHT22;25048;49.590;11.026;2023-08-20T09:07:44;29.60;99.90
29281;DHT22;25048;49.590;11.026;2023-08-20T09:10:12;29.60;99.90
29281;DHT22;25048;49.590;11.026;2023-08-20T09:12:39;29.70;99.90
29281;DHT22;25048;49.590;11.026;2023-08-20T09:15:11;29.70;99.90
29281;DHT22;25048;49.590;11.026;2023-08-20T09:17:43;29.80;99.90
29281;DHT22;25048;49.590;11.026;2023-08-20T09:20:11;30.00;99.90
29281;DHT22;25048;49.590;11.026;2023-08-20T09:22:38;30.20;99.90
29281;DHT22;25048;49.590;11.026;2023-08-20T09:25:06;30.40;99.90
29281;DHT22;25048;49.590;11.026;2023-08-20T09:27:40;30.50;99.90
29281;DHT22;25048;49.590;11.026;2023-08-20T09:30:08;30.60;99.90
29281;DHT22;25048;49.590;11.026;2023-08-20T09:32:36;30.80;99.90
29281;DHT22;25048;49.590;11.026;2023-08-20T09:35:04;30.90;99.90
29281;DHT22;25048;49.590;11.026;2023-08-20T09:37:33;31.00;99.90
29281;DHT22;25048;49.590;11.026;2023-08-20T09:40:00;31.10;99.90
29281;DHT22;25048;49.590;11.026;2023-08-20T09:42:30;31.30;99.90
29281;DHT22;25048;49.590;11.026;2023-08-20T09:45:02;31.30;99.90
29281;DHT22;25048;49.590;11.026;2023-08-20T09:47:33;31.50;99.90
29281;DHT22;25048;49.590;11.026;2023-08-20T09:50:02;31.50;99.90
29281;DHT22;25048;49.590;11.026;2023-08-20T09:52:40;31.60;99.90
29281;DHT22;25048;49.590;11.026;2023-08-20T09:55:11;31.60;99.90
29281;DHT22;25048;49.590;11.026;2023-08-20T09:57:40;31.50;99.90
29281;DHT22;25048;49.590;11.026;2023-08-20T10:00:09;31.60;99.90
29281;DHT22;25048;49.590;11.026;2023-08-20T10:02:38;31.80;99.90
29281;DHT22;25048;49.590;11.026;2023-08-20T10:05:06;32.00;99.90
29281;DHT22;25048;49.590;11.026;2023-08-20T10:07:35;32.10;99.90
29281;DHT22;25048;49.590;11.026;2023-08-20T10:10:07;32.10;99.90
29281;DHT22;25048;49.590;11.026;2023-08-20T10:12:37;32.20;99.90
29281;DHT22;25048;49.590;11.026;2023-08-20T10:15:08;32.30;99.90
29281;DHT22;25048;49.590;11.026;2023-08-20T10:17:40;32.30;99.90
29281;DHT22;25048;49.590;11.026;2023-08-20T10:20:09;32.30;99.90
29281;DHT22;25048;49.590;11.026;2023-08-20T10:22:41;32.50;99.90
29281;DHT22;25048;49.590;11.026;2023-08-20T10:25:11;32.60;99.90
29281;DHT22;25048;49.590;11.026;2023-08-20T10:27:41;32.80;99.90
29281;DHT22;25048;49.590;11.026;2023-08-20T10:30:25;33.00;99.90
29281;DHT22;25048;49.590;11.026;2023-08-20T10:32:56;33.10;99.90
29281;DHT22;25048;49.590;11.026;2023-08-20T10:38:14;33.20;99.90
29281;DHT22;25048;49.590;11.026;2023-08-20T10:40:58;33.20;99.90
29281;DHT22;25048;49.590;11.026;2023-08-20T10:48:39;33.20;99.90
29281;DHT22;25048;49.590;11.026;2023-08-20T10:51:12;33.20;98.50
29281;DHT22;25048;49.590;11.026;2023-08-20T10:53:42;33.40;99.60
29281;DHT22;25048;49.590;11.026;2023-08-20T10:56:15;33.50;99.70
29281;DHT22;25048;49.590;11.026;2023-08-20T10:58:45;33.60;99.20
29281;DHT22;25048;49.590;11.026;2023-08-20T11:01:15;33.60;99.60
29281;DHT22;25048;49.590;11.026;2023-08-20T11:03:49;33.70;99.20
29281;DHT22;25048;49.590;11.026;2023-08-20T11:06:12;33.90;98.40
29281;DHT22;25048;49.590;11.026;2023-08-20T11:08:41;34.20;97.30
29281;DHT22;25048;49.590;11.026;2023-08-20T11:11:10;34.50;98.70
29281;DHT22;25048;49.590;11.026;2023-08-20T11:13:38;34.70;96.30
29281;DHT22;25048;49.590;11.026;2023-08-20T11:16:06;34.80;97.30
29281;DHT22;25048;49.590;11.026;2023-08-20T11:18:34;34.90;97.90
29281;DHT22;25048;49.590;11.026;2023-08-20T11:21:02;34.90;98.70
29281;DHT22;25048;49.590;11.026;2023-08-20T11:23:30;34.90;97.90
29281;DHT22;25048;49.590;11.026;2023-08-20T11:25:58;34.70;98.80
29281;DHT22;25048;49.590;11.026;2023-08-20T11:28:27;34.40;98.50
29281;DHT22;25048;49.590;11.026;2023-08-20T11:30:55;34.10;96.80
29281;DHT22;25048;49.590;11.026;2023-08-20T11:33:24;33.80;97.80
29281;DHT22;25048;49.590;11.026;2023-08-20T11:35:52;33.70;97.70
29281;DHT22;25048;49.590;11.026;2023-08-20T11:38:23;33.50;97.40
29281;DHT22;25048;49.590;11.026;2023-08-20T11:40:51;33.40;99.50
29281;DHT22;25048;49.590;11.026;2023-08-20T11:43:19;33.40;98.10
29281;DHT22;25048;49.590;11.026;2023-08-20T11:45:48;33.50;99.00
29281;DHT22;25048;49.590;11.026;2023-08-20T11:48:17;33.70;98.80
29281;DHT22;25048;49.590;11.026;2023-08-20T11:50:44;33.90;98.10
29281;DHT22;25048;49.590;11.026;2023-08-20T11:53:12;34.10;97.10
29281;DHT22;25048;49.590;11.026;2023-08-20T11:55:40;34.30;97.70
29281;DHT22;25048;49.590;11.026;2023-08-20T11:58:14;34.70;98.30
29281;DHT22;25048;49.590;11.026;2023-08-20T12:00:41;34.80;96.70
29281;DHT22;25048;49.590;11.026;2023-08-20T12:03:09;35.00;96.50
29281;DHT22;25048;49.590;11.026;2023-08-20T12:05:40;35.20;97.80
29281;DHT22;25048;49.590;11.026;2023-08-20T12:08:06;35.40;95.00
29281;DHT22;25048;49.590;11.026;2023-08-20T12:10:33;35.50;95.90
29281;DHT22;25048;49.590;11.026;2023-08-20T12:13:02;35.50;95.80
29281;DHT22;25048;49.590;11.026;2023-08-20T12:15:29;35.60;95.40
29281;DHT22;25048;49.590;11.026;2023-08-20T12:18:01;35.70;94.10
29281;DHT22;25048;49.590;11.026;2023-08-20T12:20:32;35.70;95.40
29281;DHT22;25048;49.590;11.026;2023-08-20T12:23:02;35.80;93.90
29281;DHT22;25048;49.590;11.026;2023-08-20T12:25:32;35.70;93.00
29281;DHT22;25048;49.590;11.026;2023-08-20T12:28:01;35.50;94.60
29281;DHT22;25048;49.590;11.026;2023-08-20T12:30:31;35.40;95.40
29281;DHT22;25048;49.590;11.026;2023-08-20T12:33:00;35.60;94.00
29281;DHT22;25048;49.590;11.026;2023-08-20T12:35:28;35.80;94.70
29281;DHT22;25048;49.590;11.026;2023-08-20T12:37:56;36.00;95.60
29281;DHT22;25048;49.590;11.026;2023-08-20T12:40:23;36.20;96.00
29281;DHT22;25048;49.590;11.026;2023-08-20T12:42:51;36.30;94.60
29281;DHT22;25048;49.590;11.026;2023-08-20T12:45:18;36.30;91.70
29281;DHT22;25048;49.590;11.026;2023-08-20T12:47:46;36.30;94.00
29281;DHT22;25048;49.590;11.026;2023-08-20T12:50:14;36.20;95.60
29281;DHT22;25048;49.590;11.026;2023-08-20T12:52:41;36.20;94.90
29281;DHT22;25048;49.590;11.026;2023-08-20T12:55:09;36.00;92.50
29281;DHT22;25048;49.590;11.026;2023-08-20T12:57:51;35.80;93.70
29281;DHT22;25048;49.590;11.026;2023-08-20T13:00:07;35.80;93.70
29281;DHT22;25048;49.590;11.026;2023-08-20T13:02:36;36.00;93.40
29281;DHT22;25048;49.590;11.026;2023-08-20T13:05:05;36.10;92.80
29281;DHT22;25048;49.590;11.026;2023-08-20T13:07:33;36.10;92.30
29281;DHT22;25048;49.590;11.026;2023-08-20T13:10:00;36.20;92.50
29281;DHT22;25048;49.590;11.026;2023-08-20T13:12:29;36.40;93.20
29281;DHT22;25048;49.590;11.026;2023-08-20T13:14:58;36.60;92.20
29281;DHT22;25048;49.590;11.026;2023-08-20T13:17:26;36.80;91.80
29281;DHT22;25048;49.590;11.026;2023-08-20T13:19:53;37.00;91.60
29281;DHT22;25048;49.590;11.026;2023-08-20T13:22:21;37.10;90.80
29281;DHT22;25048;49.590;11.026;2023-08-20T13:24:49;37.10;90.30
29281;DHT22;25048;49.590;11.026;2023-08-20T13:27:16;37.10;90.90
29281;DHT22;25048;49.590;11.026;2023-08-20T13:29:44;37.10;90.90
29281;DHT22;25048;49.590;11.026;2023-08-20T13:32:12;37.10;92.20
29281;DHT22;25048;49.590;11.026;2023-08-20T13:34:39;37.20;90.00
29281;DHT22;25048;49.590;11.026;2023-08-20T13:37:07;37.20;91.20
29281;DHT22;25048;49.590;11.026;2023-08-20T13:39:35;37.30;87.10
29281;DHT22;25048;49.590;11.026;2023-08-20T13:42:02;37.30;92.00
29281;DHT22;25048;49.590;11.026;2023-08-20T13:44:30;37.20;90.00
29281;DHT22;25048;49.590;11.026;2023-08-20T13:46:58;37.30;91.60
29281;DHT22;25048;49.590;11.026;2023-08-20T13:49:26;37.50;93.40
29281;DHT22;25048;49.590;11.026;2023-08-20T13:51:53;37.50;86.70
29281;DHT22;25048;49.590;11.026;2023-08-20T13:54:21;37.50;88.70
29281;DHT22;25048;49.590;11.026;2023-08-20T13:56:48;37.50;89.10
29281;DHT22;25048;49.590;11.026;2023-08-20T13:59:16;37.60;87.40
29281;DHT22;25048;49.590;11.026;2023-08-20T14:01:43;37.80;85.90
29281;DHT22;25048;49.590;11.026;2023-08-20T14:04:11;37.90;90.60
29281;DHT22;25048;49.590;11.026;2023-08-20T14:06:38;38.00;90.70
29281;DHT22;25048;49.590;11.026;2023-08-20T14:09:06;38.00;84.90
29281;DHT22;25048;49.590;11.026;2023-08-20T14:11:33;38.10;90.50
29281;DHT22;25048;49.590;11.026;2023-08-20T14:14:01;38.20;89.40
29281;DHT22;25048;49.590;11.026;2023-08-20T14:16:28;38.20;85.00
29281;DHT22;25048;49.590;11.026;2023-08-20T14:18:56;38.10;88.20
29281;DHT22;25048;49.590;11.026;2023-08-20T14:21:23;38.20;86.20
29281;DHT22;25048;49.590;11.026;2023-08-20T14:23:51;38.30;91.00
29281;DHT22;25048;49.590;11.026;2023-08-20T14:26:18;38.30;82.50
29281;DHT22;25048;49.590;11.026;2023-08-20T14:28:46;38.40;83.20
29281;DHT22;25048;49.590;11.026;2023-08-20T14:31:14;38.60;87.00
29281;DHT22;25048;49.590;11.026;2023-08-20T14:33:42;38.60;83.90
29281;DHT22;25048;49.590;11.026;2023-08-20T14:36:10;38.60;83.90
29281;DHT22;25048;49.590;11.026;2023-08-20T14:38:37;38.50;82.70
29281;DHT22;25048;49.590;11.026;2023-08-20T14:41:05;38.40;81.90
29281;DHT22;25048;49.590;11.026;2023-08-20T14:43:32;38.40;79.20
29281;DHT22;25048;49.590;11.026;2023-08-20T14:46:00;38.40;85.60
29281;DHT22;25048;49.590;11.026;2023-08-20T14:48:27;38.50;82.00
29281;DHT22;25048;49.590;11.026;2023-08-20T14:50:55;38.50;84.40
29281;DHT22;25048;49.590;11.026;2023-08-20T14:53:23;38.60;84.90
29281;DHT22;25048;49.590;11.026;2023-08-20T14:55:51;38.60;83.40
29281;DHT22;25048;49.590;11.026;2023-08-20T14:58:18;38.50;78.90
29281;DHT22;25048;49.590;11.026;2023-08-20T15:00:45;38.50;77.90
29281;DHT22;25048;49.590;11.026;2023-08-20T15:03:15;38.40;75.90
29281;DHT22;25048;49.590;11.026;2023-08-20T15:05:43;38.30;81.10
29281;DHT22;25048;49.590;11.026;2023-08-20T15:08:11;38.20;79.80
29281;DHT22;25048;49.590;11.026;2023-08-20T15:10:39;38.30;76.10
29281;DHT22;25048;49.590;11.026;2023-08-20T15:13:06;38.40;76.60
29281;DHT22;25048;49.590;11.026;2023-08-20T15:15:34;38.40;76.40
29281;DHT22;25048;49.590;11.026;2023-08-20T15:18:02;38.40;75.10
29281;DHT22;25048;49.590;11.026;2023-08-20T15:20:29;38.30;74.40
29281;DHT22;25048;49.590;11.026;2023-08-20T15:22:57;38.30;79.40
29281;DHT22;25048;49.590;11.026;2023-08-20T15:25:25;38.20;74.70
29281;DHT22;25048;49.590;11.026;2023-08-20T15:27:52;38.10;72.90
29281;DHT22;25048;49.590;11.026;2023-08-20T15:30:20;38.10;74.80
29281;DHT22;25048;49.590;11.026;2023-08-20T15:32:50;38.00;77.20
29281;DHT22;25048;49.590;11.026;2023-08-20T15:35:17;37.90;75.00
29281;DHT22;25048;49.590;11.026;2023-08-20T15:37:45;37.80;78.30